createdAt,value
2023-04-01T00:01:26.366Z,98773.56
2023-04-01T00:03:55.138Z,98777.34
2023-04-01T00:06:23.265Z,98786.53
2023-04-01T00:08:51.372Z,98791.91
2023-04-01T00:11:20.607Z,98792.16
2023-04-01T00:13:49.058Z,98804.84
2023-04-01T00:16:22.061Z,98801.34
2023-04-01T00:18:52.066Z,98806.72
2023-04-01T00:21:20.273Z,98810.47
2023-04-01T00:23:48.300Z,98808.59
2023-04-01T00:26:19.957Z,98819.63
2023-04-01T00:28:48.047Z,98825.84
2023-04-01T00:31:16.165Z,98818.84
2023-04-01T00:33:44.201Z,98817.19
2023-04-01T00:36:13.899Z,98818.84
2023-04-01T00:38:42.637Z,98810.97
2023-04-01T00:41:11.862Z,98799.38
2023-04-01T00:43:39.843Z,98786.97
2023-04-01T00:46:07.764Z,98782.38
2023-04-01T00:48:36.298Z,98769.72
2023-04-01T00:51:05.503Z,98765.38
2023-04-01T00:53:35.125Z,98772.41
2023-04-01T00:56:05.421Z,98767.00
2023-04-01T00:58:35.146Z,98752.94
2023-04-01T01:01:03.230Z,98750.81
2023-04-01T01:03:32.185Z,98755.41
2023-04-01T01:06:12.369Z,98750.81
2023-04-01T01:08:59.381Z,98745.44
2023-04-01T01:11:37.002Z,98739.47
2023-04-01T01:14:15.039Z,98745.94
2023-04-01T01:16:45.637Z,98755.09
2023-04-01T01:19:23.065Z,98753.47
2023-04-01T01:22:08.249Z,98753.47
2023-04-01T01:24:58.314Z,98751.84
2023-04-01T01:27:26.418Z,98747.50
2023-04-01T01:30:16.548Z,98736.97
2023-04-01T01:32:57.962Z,98735.34
2023-04-01T01:35:29.156Z,98740.72
2023-04-01T01:37:58.230Z,98741.00
2023-04-01T01:40:26.841Z,98748.28
2023-04-01T01:42:57.005Z,98742.03
2023-04-01T01:45:26.184Z,98749.09
2023-04-01T01:47:54.213Z,98732.34
2023-04-01T01:50:22.308Z,98739.63
2023-04-01T01:52:51.707Z,98743.94
2023-04-01T01:55:28.386Z,98724.25
2023-04-01T01:57:56.713Z,98725.88
2023-04-01T02:00:24.837Z,98725.88
2023-04-01T02:02:52.931Z,98730.22
2023-04-01T02:05:21.989Z,98738.31
2023-04-01T02:07:55.085Z,98742.03
2023-04-01T02:10:23.164Z,98746.38
2023-04-01T02:12:51.839Z,98752.59
2023-04-01T02:15:19.949Z,98749.91
2023-04-01T02:17:47.935Z,98759.88
2023-04-01T02:20:18.087Z,98759.88
2023-04-01T02:22:47.202Z,98758.22
2023-04-01T02:25:17.963Z,98751.44
2023-04-01T02:27:46.478Z,98757.94
2023-04-01T02:30:14.718Z,98755.00
2023-04-01T02:32:42.776Z,98742.56
2023-04-01T02:35:11.474Z,98750.91
2023-04-01T02:37:40.477Z,98739.28
2023-04-01T02:40:09.681Z,98736.84
2023-04-01T02:42:39.092Z,98746.84
2023-04-01T02:45:08.294Z,98749.53
2023-04-01T02:47:36.380Z,98747.88
2023-04-01T02:50:04.592Z,98749.78
2023-04-01T02:52:32.755Z,98751.66
2023-04-01T02:55:01.010Z,98750.00
2023-04-01T02:57:29.094Z,98749.19
2023-04-01T02:59:58.587Z,98746.50
2023-04-01T03:02:26.637Z,98752.72
2023-04-01T03:04:54.860Z,98747.31
2023-04-01T03:07:22.809Z,98751.66
2023-04-01T03:09:51.558Z,98748.97
2023-04-01T03:12:19.496Z,98751.66
2023-04-01T03:14:47.436Z,98744.63
2023-04-01T03:17:16.891Z,98747.31
2023-04-01T03:19:44.925Z,98739.22
2023-04-01T03:22:13.127Z,98740.31
2023-04-01T03:24:41.092Z,98741.91
2023-04-01T03:27:09.097Z,98739.22
2023-04-01T03:29:37.150Z,98732.22
2023-04-01T03:32:05.237Z,98727.91
2023-04-01T03:34:34.641Z,98730.59
2023-04-01T03:37:02.560Z,98727.31
2023-04-01T03:39:30.607Z,98735.66
2023-04-01T03:41:58.536Z,98727.56
2023-04-01T03:44:26.643Z,98722.16
2023-04-01T03:46:54.691Z,98720.56
2023-04-01T03:49:22.687Z,98714.34
2023-04-01T03:51:52.001Z,98728.88
2023-04-01T03:54:21.090Z,98725.13
2023-04-01T03:56:49.092Z,98719.19
2023-04-01T03:59:17.069Z,98727.25
2023-04-01T04:01:45.111Z,98724.00
2023-04-01T04:04:13.875Z,98722.94
2023-04-01T04:06:42.073Z,98731.03
2023-04-01T04:09:11.393Z,98722.09
2023-04-01T04:11:39.342Z,98716.72
2023-04-01T04:14:07.304Z,98714.03
2023-04-01T04:16:37.599Z,98711.31
2023-04-01T04:19:05.697Z,98714.28
2023-04-01T04:21:33.674Z,98701.63
2023-04-01T04:24:01.702Z,98694.59
2023-04-01T04:26:31.104Z,98685.69
2023-04-01T04:28:59.038Z,98678.66
2023-04-01T04:33:54.838Z,98674.34
2023-04-01T04:36:22.992Z,98666.28
2023-04-01T04:38:51.039Z,98654.66
2023-04-01T04:41:19.786Z,98653.84
2023-04-01T04:43:52.991Z,98650.09
2023-04-01T04:46:21.130Z,98639.56
2023-04-01T04:48:49.253Z,98637.09
2023-04-01T04:51:17.649Z,98642.50
2023-04-01T04:53:45.597Z,98653.28
2023-04-01T04:56:13.762Z,98650.84
2023-04-01T04:58:41.740Z,98662.44
2023-04-01T05:01:12.398Z,98667.81
2023-04-01T05:03:40.486Z,98662.44
2023-04-01T05:06:08.828Z,98658.38
2023-04-01T05:08:36.935Z,98662.94
2023-04-01T05:11:05.018Z,98654.28
2023-04-01T05:13:32.911Z,98650.56
2023-04-01T05:16:00.868Z,98649.47
2023-04-01T05:18:30.229Z,98624.41
2023-04-01T05:20:58.196Z,98622.50
2023-04-01T05:23:26.223Z,98632.22
2023-04-01T05:25:54.382Z,98629.78
2023-04-01T05:28:22.432Z,98626.03
2023-04-01T05:30:50.343Z,98617.13
2023-04-01T05:33:18.345Z,98602.84
2023-04-01T05:35:47.802Z,98587.47
2023-04-01T05:38:15.813Z,98574.00
2023-04-01T05:40:43.859Z,98577.78
2023-04-01T05:43:11.771Z,98586.91
2023-04-01T05:45:39.995Z,98585.00
2023-04-01T05:48:08.013Z,98585.00
2023-04-01T05:50:36.025Z,98583.16
2023-04-01T05:53:05.382Z,98589.59
2023-04-01T05:55:33.503Z,98586.34
2023-04-01T05:58:01.548Z,98575.56
2023-04-01T06:00:29.535Z,98574.75
2023-04-01T06:02:57.584Z,98588.50
2023-04-01T06:05:26.878Z,98600.09
2023-04-01T06:07:57.494Z,98608.41
2023-04-01T06:10:31.155Z,98610.06
2023-04-01T06:13:02.799Z,98596.81
2023-04-01T06:15:38.526Z,98585.22
2023-04-01T06:18:55.213Z,98559.09
2023-04-01T06:21:34.342Z,98544.81
2023-04-01T06:24:07.341Z,98532.13
2023-04-01T06:26:38.534Z,98523.25
2023-04-01T06:29:28.487Z,98521.34
2023-04-01T06:32:08.407Z,98524.06
2023-04-01T06:34:44.876Z,98534.59
2023-04-01T06:37:25.790Z,98530.25
2023-04-01T06:40:08.565Z,98531.34
2023-04-01T06:43:02.182Z,98534.03
2023-04-01T06:45:35.283Z,98537.22
2023-04-01T06:48:12.913Z,98538.84
2023-04-01T06:50:44.998Z,98540.97
2023-04-01T06:53:14.686Z,98543.69
2023-04-01T06:55:43.515Z,98542.88
2023-04-01T06:58:18.016Z,98532.09
2023-04-01T07:00:46.932Z,98526.94
2023-04-01T07:03:18.904Z,98526.94
2023-04-01T07:05:46.854Z,98535.59
2023-04-01T07:08:17.613Z,98536.16
2023-04-01T07:10:46.805Z,98538.59
2023-04-01T07:13:19.215Z,98525.13
2023-04-01T07:15:50.584Z,98515.16
2023-04-01T07:18:19.924Z,98506.81
2023-04-01T07:20:48.008Z,98494.69
2023-04-01T07:23:19.109Z,98494.22
2023-04-01T07:25:47.786Z,98484.25
2023-04-01T07:28:18.127Z,98481.28
2023-04-01T07:30:53.471Z,98478.56
2023-04-01T07:33:24.027Z,98465.09
2023-04-01T07:35:54.244Z,98472.94
2023-04-01T07:38:25.293Z,98477.53
2023-04-01T07:40:56.638Z,98475.88
2023-04-01T07:43:42.308Z,98476.97
2023-04-01T07:46:14.368Z,98485.28
2023-04-01T07:48:45.973Z,98479.09
2023-04-01T07:51:16.079Z,98487.69
2023-04-01T07:53:46.385Z,98480.69
2023-04-01T07:56:16.561Z,98482.31
2023-04-01T07:58:53.259Z,98471.53
2023-04-01T08:01:23.863Z,98480.69
2023-04-01T08:04:00.846Z,98463.44
2023-04-01T08:06:30.933Z,98469.91
2023-04-01T08:09:03.217Z,98462.88
2023-04-01T08:11:43.590Z,98480.13
2023-04-01T08:14:16.009Z,98482.81
2023-04-01T08:16:46.762Z,98480.13
2023-04-01T08:19:20.393Z,98489.81
2023-04-01T08:21:49.505Z,98489.59
2023-04-01T08:24:27.870Z,98486.63
2023-04-01T08:26:58.726Z,98493.66
2023-04-01T08:29:29.049Z,98497.97
2023-04-01T08:31:58.750Z,98488.81
2023-04-01T08:34:28.301Z,98478.03
2023-04-01T08:36:59.222Z,98476.41
2023-04-01T08:39:31.029Z,98467.25
2023-04-01T08:42:33.057Z,98471.56
2023-04-01T08:45:11.977Z,98474.28
2023-04-01T08:47:52.732Z,98472.66
2023-04-01T08:50:45.968Z,98467.78
2023-04-01T08:53:15.930Z,98465.09
2023-04-01T08:55:49.114Z,98462.91
2023-04-01T08:58:39.309Z,98456.47
2023-04-01T09:01:15.814Z,98453.78
2023-04-01T09:04:01.598Z,98453.25
2023-04-01T09:06:34.073Z,98450.25
2023-04-01T09:09:35.239Z,98445.69
2023-04-01T09:12:33.617Z,98444.63
2023-04-01T09:15:29.844Z,98441.34
2023-04-01T09:18:29.388Z,98450.25
2023-04-01T09:21:06.580Z,98448.41
2023-04-01T09:23:47.157Z,98448.13
2023-04-01T09:26:39.546Z,98449.75
2023-04-01T09:29:13.791Z,98444.38
2023-04-01T09:31:52.018Z,98444.38
2023-04-01T09:34:40.768Z,98439.78
2023-04-01T09:37:22.636Z,98435.22
2023-04-01T09:40:12.132Z,98434.94
2023-04-01T09:42:47.766Z,98435.22
2023-04-01T09:45:29.305Z,98439.78
2023-04-01T09:48:04.840Z,98442.50
2023-04-01T09:50:37.908Z,98440.84
2023-04-01T09:53:37.461Z,98438.16
2023-04-01T09:56:22.291Z,98441.91
2023-04-01T09:59:32.827Z,98453.25
2023-04-01T10:02:36.330Z,98450.81
2023-04-01T10:05:22.363Z,98458.91
2023-04-01T10:08:25.890Z,98464.28
2023-04-01T10:11:16.436Z,98463.50
2023-04-01T10:14:22.860Z,98475.06
2023-04-01T10:17:15.660Z,98471.31
2023-04-01T10:20:04.993Z,98481.28
2023-04-01T10:22:51.250Z,98479.13
2023-04-01T10:25:40.047Z,98498.81
2023-04-01T10:28:20.994Z,98476.19
2023-04-01T10:31:13.114Z,98486.16
2023-04-01T10:34:02.668Z,98483.44
2023-04-01T10:36:52.984Z,98492.09
2023-04-01T10:39:55.295Z,98505.56
2023-04-01T10:42:56.299Z,98494.78
2023-04-01T10:45:48.011Z,98496.69
2023-04-01T10:48:51.490Z,98510.97
2023-04-01T10:51:22.944Z,98508.53
2023-04-01T10:54:16.858Z,98514.75
2023-04-01T10:56:52.482Z,98523.88
2023-04-01T10:59:58.849Z,98526.56
2023-04-01T11:03:09.365Z,98537.13
2023-04-01T11:06:22.616Z,98539.00
2023-04-01T11:09:16.463Z,98540.91
2023-04-01T11:12:19.765Z,98553.28
2023-04-01T11:15:10.527Z,98558.69
2023-04-01T11:17:52.131Z,98565.97
2023-04-01T11:20:55.504Z,98568.66
2023-04-01T11:23:52.000Z,98573.25
2023-04-01T11:26:39.115Z,98589.16
2023-04-01T11:29:17.657Z,98588.09
2023-04-01T11:31:56.263Z,98595.09
2023-04-01T11:34:36.286Z,98605.88
2023-04-01T11:37:08.430Z,98619.13
2023-04-01T11:39:42.314Z,98624.53
2023-04-01T11:42:17.340Z,98629.06
2023-04-01T11:44:47.700Z,98622.88
2023-04-01T11:47:35.964Z,98634.47
2023-04-01T11:50:17.798Z,98640.94
2023-04-01T11:53:07.731Z,98654.41
2023-04-01T11:55:49.207Z,98650.63
2023-04-01T11:58:27.386Z,98659.81
2023-04-01T12:01:16.481Z,98666.00
2023-04-01T12:04:14.514Z,98679.75
2023-04-01T12:06:45.504Z,98671.66
2023-04-01T12:09:17.124Z,98674.34
2023-04-01T12:11:50.866Z,98679.19
2023-04-01T12:14:20.479Z,98679.75
2023-04-01T12:16:53.767Z,98701.31
2023-04-01T12:19:26.617Z,98706.44
2023-04-01T12:22:00.760Z,98707.25
2023-04-01T12:24:36.789Z,98709.13
2023-04-01T12:27:22.001Z,98708.31
2023-04-01T12:30:13.682Z,98718.03
2023-04-01T12:32:43.213Z,98709.94
2023-04-01T12:35:22.807Z,98718.03
2023-04-01T12:38:04.996Z,98727.78
2023-04-01T12:40:48.999Z,98733.16
2023-04-01T12:43:59.277Z,98733.16
2023-04-01T12:46:33.471Z,98731.50
2023-04-01T12:49:23.306Z,98740.69
2023-04-01T12:55:09.056Z,98740.44
2023-04-01T12:57:47.609Z,98736.91
2023-04-01T13:00:26.915Z,98749.84
2023-04-01T13:03:05.046Z,98762.25
2023-04-01T13:05:55.378Z,98763.88
2023-04-01T13:08:29.770Z,98771.16
2023-04-01T13:11:05.321Z,98774.66
2023-04-01T13:13:42.035Z,98778.41
2023-04-01T13:16:11.229Z,98781.69
2023-04-01T13:18:42.470Z,98777.34
2023-04-01T13:21:14.841Z,98787.09
2023-04-01T13:23:53.152Z,98784.38
2023-04-01T13:26:24.545Z,98781.69
2023-04-01T13:28:55.122Z,98784.97
2023-04-01T13:31:30.039Z,98787.66
2023-04-01T13:34:03.297Z,98790.34
2023-04-01T13:36:34.305Z,98801.13
2023-04-01T13:39:15.568Z,98793.59
2023-04-01T13:41:50.909Z,98813.31
2023-04-01T13:44:21.756Z,98807.66
2023-04-01T13:47:02.751Z,98823.81
2023-04-01T13:49:57.093Z,98819.25
2023-04-01T13:52:57.389Z,98825.47
2023-04-01T13:55:56.030Z,98825.47
2023-04-01T13:58:40.860Z,98837.06
2023-04-01T14:01:11.305Z,98845.41
2023-04-01T14:04:17.244Z,98848.66
2023-04-01T14:06:53.557Z,98836.25
2023-04-01T14:09:34.373Z,98837.06
2023-04-01T14:12:06.668Z,98837.06
2023-04-01T14:14:45.704Z,98845.97
2023-04-01T14:17:23.211Z,98857.56
2023-04-01T14:20:24.595Z,98852.16
2023-04-01T14:23:07.113Z,98852.97
2023-04-01T14:26:03.559Z,98861.06
2023-04-01T14:28:33.677Z,98862.72
2023-04-01T14:31:20.523Z,98868.13
2023-04-01T14:33:50.910Z,98867.03
2023-04-01T14:36:31.618Z,98858.13
2023-04-01T14:39:07.091Z,98857.06
2023-04-01T14:41:41.763Z,98855.19
2023-04-01T14:44:27.169Z,98857.88
2023-04-01T14:47:36.333Z,98863.25
2023-04-01T14:50:10.591Z,98855.19
2023-04-01T14:52:40.165Z,98855.19
2023-04-01T14:55:22.573Z,98859.53
2023-04-01T14:58:01.080Z,98858.44
2023-04-01T15:00:29.109Z,98856.81
2023-04-01T15:03:02.626Z,98857.63
2023-04-01T15:05:35.758Z,98862.22
2023-04-01T15:08:05.688Z,98866.53
2023-04-01T15:11:08.516Z,98870.88
2023-04-01T15:14:13.315Z,98863.84
2023-04-01T15:16:44.112Z,98862.78
2023-04-01T15:19:17.291Z,98864.66
2023-04-01T15:22:07.166Z,98863.59
2023-04-01T15:24:42.465Z,98859.25
2023-04-01T15:27:17.330Z,98860.09
2023-04-01T15:30:18.087Z,98861.72
2023-04-01T15:32:51.910Z,98866.31
2023-04-01T15:35:24.022Z,98859.84
2023-04-01T15:37:54.574Z,98866.88
2023-04-01T15:40:24.831Z,98865.00
2023-04-01T15:43:02.074Z,98868.25
2023-04-01T15:45:36.465Z,98875.50
2023-04-01T15:48:08.336Z,98887.13
2023-04-01T15:50:54.041Z,98883.59
2023-04-01T15:53:48.807Z,98892.53
2023-04-01T15:56:22.828Z,98899.78
2023-04-01T15:58:57.046Z,98902.25
2023-04-01T16:01:29.574Z,98906.81
2023-04-01T16:04:00.095Z,98908.44
2023-04-01T16:06:40.129Z,98903.31
2023-04-01T16:09:15.438Z,98901.66
2023-04-01T16:11:47.501Z,98904.38
2023-04-01T16:14:23.022Z,98901.44
2023-04-01T16:17:00.766Z,98907.88
2023-04-01T16:19:35.990Z,98900.63
2023-04-01T16:22:06.339Z,98912.22
2023-04-01T16:24:36.693Z,98904.94
2023-04-01T16:27:06.339Z,98904.94
2023-04-01T16:29:39.596Z,98916.81
2023-04-01T16:32:20.242Z,98914.66
2023-04-01T16:34:50.716Z,98918.44
2023-04-01T16:37:21.917Z,98918.44
2023-04-01T16:39:51.600Z,98923.81
2023-04-01T16:42:25.020Z,98919.25
2023-04-01T16:44:57.743Z,98918.44
2023-04-01T16:47:29.624Z,98928.13
2023-04-01T16:50:00.526Z,98930.84
2023-04-01T16:52:45.910Z,98935.41
2023-04-01T16:55:17.790Z,98940.81
2023-04-01T16:57:51.484Z,98945.41
2023-04-01T17:00:27.645Z,98953.50
2023-04-01T17:03:01.297Z,98961.56
2023-04-01T17:05:40.789Z,98958.88
2023-04-01T17:08:11.649Z,98953.50
2023-04-01T17:10:43.653Z,98953.25
2023-04-01T17:13:42.640Z,98965.91
2023-04-01T17:16:23.906Z,98961.56
2023-04-01T17:18:54.022Z,98961.34
2023-04-01T17:21:24.299Z,98969.44
2023-04-01T17:23:53.885Z,98964.84
2023-04-01T17:26:29.701Z,98970.25
2023-04-01T17:29:00.570Z,98971.06
2023-04-01T17:31:41.696Z,98973.50
2023-04-01T17:34:35.913Z,98974.34
2023-04-01T17:37:14.310Z,98976.19
2023-04-01T17:39:57.455Z,98984.28
2023-04-01T17:42:30.879Z,98985.13
2023-04-01T17:45:01.226Z,98985.94
2023-04-01T17:47:43.839Z,98992.94
2023-04-01T17:50:23.892Z,98986.50
2023-04-01T17:53:01.775Z,98984.03
2023-04-01T17:55:40.987Z,98985.13
2023-04-01T17:58:11.243Z,98985.94
2023-04-01T18:00:53.147Z,98985.94
2023-04-01T18:03:27.323Z,98991.31
2023-04-01T18:06:02.782Z,98995.66
2023-04-01T18:08:46.974Z,98990.25
2023-04-01T18:11:18.534Z,98983.81
2023-04-01T18:14:18.908Z,98994.59
2023-04-01T18:16:54.088Z,98992.94
2023-04-01T18:19:28.038Z,98990.84
2023-04-01T18:21:57.098Z,98997.31
2023-04-01T18:24:27.010Z,98996.47
2023-04-01T18:27:03.843Z,98994.59
2023-04-01T18:29:37.760Z,99000.00
2023-04-01T18:32:14.978Z,98998.13
2023-04-01T18:34:51.344Z,98998.91
2023-04-01T18:37:20.466Z,99002.69
2023-04-01T18:39:49.875Z,99001.38
2023-04-01T18:42:18.841Z,98996.00
2023-04-01T18:44:48.838Z,98999.50
2023-04-01T18:47:24.706Z,98998.69
2023-04-01T18:49:57.832Z,98999.25
2023-04-01T18:52:28.725Z,99001.94
2023-04-01T18:55:22.879Z,98993.84
2023-04-01T18:57:54.096Z,99000.06
2023-04-01T19:00:23.244Z,98992.81
2023-04-01T19:02:53.032Z,99002.78
2023-04-01T19:05:25.896Z,98999.00
2023-04-01T19:07:54.536Z,98999.00
2023-04-01T19:10:29.070Z,98997.38
2023-04-01T19:13:17.851Z,98994.69
2023-04-01T19:15:48.841Z,98991.97
2023-04-01T19:18:28.237Z,98991.16
2023-04-01T19:20:59.385Z,98999.00
2023-04-01T19:23:44.882Z,98997.38
2023-04-01T19:26:14.028Z,99002.78
2023-04-01T19:28:45.947Z,99008.16
2023-04-01T19:31:21.403Z,99009.22
2023-04-01T19:33:54.887Z,99009.22
2023-04-01T19:36:27.451Z,99011.91
2023-04-01T19:38:57.475Z,99014.63
2023-04-01T19:41:36.262Z,99011.91
2023-04-01T19:44:09.687Z,99011.91
2023-04-01T19:46:39.262Z,99006.53
2023-04-01T19:49:17.577Z,99001.94
2023-04-01T19:51:51.224Z,99005.22
2023-04-01T19:54:26.026Z,99003.31
2023-04-01T19:56:59.843Z,99000.63
2023-04-01T19:59:32.058Z,99004.41
2023-04-01T20:02:01.493Z,99006.03
2023-04-01T20:04:31.414Z,99007.91
2023-04-01T20:07:03.274Z,99002.28
2023-04-01T20:09:48.804Z,99007.69
2023-04-01T20:12:21.879Z,99001.47
2023-04-01T20:14:51.268Z,99007.69
2023-04-01T20:17:21.765Z,99006.88
2023-04-01T20:19:54.699Z,99008.72
2023-04-01T20:22:32.019Z,99006.03
2023-04-01T20:25:00.665Z,99014.13
2023-04-01T20:27:29.172Z,99010.59
2023-04-01T20:30:02.066Z,99018.69
2023-04-01T20:32:56.446Z,99014.13
2023-04-01T20:35:46.906Z,99017.88
2023-04-01T20:38:54.514Z,99008.97
2023-04-01T20:41:25.445Z,99020.59
2023-04-01T20:44:06.683Z,99006.28
2023-04-01T20:46:41.369Z,99019.78
2023-04-01T20:49:23.451Z,99023.50
2023-04-01T20:51:56.428Z,99030.56
2023-04-01T20:54:42.355Z,99031.38
2023-04-01T20:57:13.418Z,99027.06
2023-04-01T20:59:58.490Z,99030.56
2023-04-01T21:02:32.028Z,99027.06
2023-04-01T21:05:14.564Z,99027.06
2023-04-01T21:07:44.178Z,99025.97
2023-04-01T21:10:27.039Z,99030.56
2023-04-01T21:12:56.896Z,99019.78
2023-04-01T21:15:32.233Z,99021.66
2023-04-01T21:18:19.861Z,99025.97
2023-04-01T21:20:57.954Z,99027.06
2023-04-01T21:23:45.525Z,99034.31
2023-04-01T21:26:22.752Z,99038.88
2023-04-01T21:29:08.606Z,99030.78
2023-04-01T21:31:42.612Z,99031.06
2023-04-01T21:34:43.111Z,99039.97
2023-04-01T21:41:14.050Z,99043.16
2023-04-01T21:43:55.854Z,99046.91
2023-04-01T21:46:51.754Z,99048.78
2023-04-01T21:49:35.929Z,99052.28
2023-04-01T21:52:28.735Z,99053.38
2023-04-01T21:59:12.669Z,99049.84
2023-04-01T22:01:52.286Z,99049.03
2023-04-01T22:04:31.804Z,99054.41
2023-04-01T22:07:02.553Z,99051.47
2023-04-01T22:09:31.650Z,99050.66
2023-04-01T22:12:02.628Z,99057.69
2023-04-01T22:14:33.625Z,99052.28
2023-04-01T22:17:05.387Z,99057.69
2023-04-01T22:19:38.226Z,99056.66
2023-04-01T22:22:10.663Z,99059.34
2023-04-01T22:24:43.821Z,99053.94
2023-04-01T22:27:16.201Z,99059.34
2023-04-01T22:29:53.423Z,99053.94
2023-04-01T22:32:24.124Z,99053.09
2023-04-01T22:34:54.547Z,99057.69
2023-04-01T22:37:24.516Z,99063.09
2023-04-01T22:39:59.523Z,99056.88
2023-04-01T22:42:35.837Z,99066.84
2023-04-01T22:45:09.479Z,99069.56
2023-04-01T22:47:41.913Z,99066.84
2023-04-01T22:50:14.273Z,99069.78
2023-04-01T22:52:43.190Z,99067.34
2023-04-01T22:55:12.929Z,99065.47
2023-04-01T22:57:43.890Z,99063.56
2023-04-01T23:00:16.102Z,99068.97
2023-04-01T23:02:48.466Z,99074.38
2023-04-01T23:05:18.038Z,99074.38
2023-04-01T23:07:51.047Z,99070.84
2023-04-01T23:10:23.180Z,99072.75
2023-04-01T23:12:51.800Z,99066.53
2023-04-01T23:15:20.126Z,99080.84
2023-04-01T23:18:10.622Z,99070.84
2023-04-01T23:20:52.195Z,99078.94
2023-04-01T23:23:25.887Z,99085.16
2023-04-01T23:25:57.983Z,99088.44
2023-04-01T23:28:42.463Z,99093.03
2023-04-01T23:31:32.123Z,99086.78
2023-04-01T23:34:02.741Z,99092.19
2023-04-01T23:36:30.993Z,99092.19
2023-04-01T23:38:59.484Z,99084.09
2023-04-01T23:41:29.059Z,99090.56
2023-04-01T23:43:59.487Z,99085.16
2023-04-01T23:46:27.564Z,99088.66
2023-04-01T23:48:55.563Z,99078.13
2023-04-01T23:51:27.356Z,99081.06
2023-04-01T23:53:59.495Z,99077.31
2023-04-01T23:56:36.540Z,99077.31
2023-04-01T23:59:04.781Z,99079.44
